Terminal Aerodrome Forecast
Issued by NWS

Home | Current Version | Previous Version | Graphics & Text | Print | Product List | Glossary On
Versions: 1 2 3 4 5 6 7 8 9 10 11 12 13 14 15 16 17 18 19 20 21 22 23 24 25 26
621
FTUS43 KICT 221010 AAA
TAFSLN
TAF AMD
KSLN 221010Z 2210/2306 27009KT P6SM SCT008 BKN015
      TEMPO 2210/2213 -RASN SCT004 BKN008
     FM221300 31020G30KT 4SM -RASN SCT008 OVC015
     FM221500 32029G39KT 2SM -SN SCT005 OVC009
     FM222000 32029G39KT P6SM BKN035
     FM230000 32020G30KT P6SM SKC=

USA.gov is the U.S. government's official web portal to all federal, state and local government web resources and services.